createdAt,value
2022-08-28T00:00:14.222Z,3.80
2022-08-28T00:02:41.715Z,4.10
2022-08-28T00:05:11.405Z,3.73
2022-08-28T00:07:38.239Z,3.63
2022-08-28T00:10:06.907Z,4.00
2022-08-28T00:12:35.357Z,3.77
2022-08-28T00:15:04.501Z,3.77
2022-08-28T00:17:31.322Z,4.17
2022-08-28T00:19:57.995Z,4.00
2022-08-28T00:22:24.725Z,4.50
2022-08-28T00:24:51.457Z,4.03
2022-08-28T00:27:40.609Z,3.80
2022-08-28T00:30:07.982Z,4.00
2022-08-28T00:32:35.512Z,3.70
2022-08-28T00:35:02.907Z,3.50
2022-08-28T00:37:29.622Z,4.27
2022-08-28T00:39:56.297Z,3.90
2022-08-28T00:42:23.081Z,4.20
2022-08-28T00:44:49.775Z,3.80
2022-08-28T00:47:16.520Z,3.97
2022-08-28T00:49:50.494Z,3.90
2022-08-28T00:52:18.978Z,3.80
2022-08-28T00:54:58.654Z,3.73
2022-08-28T00:57:30.277Z,4.13
2022-08-28T00:59:57.341Z,3.90
2022-08-28T01:02:24.514Z,3.57
2022-08-28T01:04:51.232Z,3.53
2022-08-28T01:07:18.802Z,4.17
2022-08-28T01:09:48.828Z,3.50
2022-08-28T01:12:22.542Z,3.63
2022-08-28T01:14:51.831Z,3.50
2022-08-28T01:17:23.590Z,3.97
2022-08-28T01:19:58.341Z,2.93
2022-08-28T01:22:32.804Z,3.13
2022-08-28T01:25:01.994Z,2.93
2022-08-28T01:27:29.100Z,3.50
2022-08-28T01:29:56.028Z,3.20
2022-08-28T01:32:39.284Z,3.93
2022-08-28T01:35:10.264Z,4.10
2022-08-28T01:37:37.779Z,3.20
2022-08-28T01:40:08.601Z,3.97
2022-08-28T01:42:44.807Z,3.40
2022-08-28T01:45:14.615Z,3.67
2022-08-28T01:47:43.426Z,3.77
2022-08-28T01:50:13.905Z,3.50
2022-08-28T01:52:41.392Z,3.67
2022-08-28T01:55:09.525Z,4.30
2022-08-28T01:57:43.426Z,3.87
2022-08-28T02:00:11.228Z,3.80
2022-08-28T02:02:38.271Z,3.77
2022-08-28T02:05:05.440Z,3.57
2022-08-28T02:07:32.100Z,3.23
2022-08-28T02:09:58.785Z,3.80
2022-08-28T02:12:25.459Z,3.17
2022-08-28T02:14:52.599Z,3.27
2022-08-28T02:17:19.251Z,3.63
2022-08-28T02:19:45.915Z,3.77
2022-08-28T02:22:13.441Z,2.93
2022-08-28T02:24:40.268Z,3.70
2022-08-28T02:27:06.934Z,3.53
2022-08-28T02:29:33.601Z,3.53
2022-08-28T02:32:00.297Z,3.77
2022-08-28T02:34:26.998Z,4.00
2022-08-28T02:36:53.710Z,3.93
2022-08-28T02:39:20.356Z,4.00
2022-08-28T02:41:47.006Z,3.50
2022-08-28T02:44:13.724Z,4.30
2022-08-28T02:46:40.434Z,4.40
2022-08-28T02:49:07.074Z,4.20
2022-08-28T02:51:34.682Z,3.93
2022-08-28T02:54:02.002Z,4.20
2022-08-28T02:56:28.962Z,4.77
2022-08-28T02:58:55.662Z,4.60
2022-08-28T03:01:23.536Z,4.57
2022-08-28T03:03:50.265Z,4.60
2022-08-28T03:06:16.969Z,3.47
2022-08-28T03:08:44.262Z,3.90
2022-08-28T03:11:11.968Z,4.30
2022-08-28T03:13:38.747Z,3.80
2022-08-28T03:16:05.468Z,4.20
2022-08-28T03:18:33.084Z,3.93
2022-08-28T03:21:00.242Z,3.73
2022-08-28T03:23:27.227Z,3.40
2022-08-28T03:25:57.111Z,4.00
2022-08-28T03:28:25.933Z,3.67
2022-08-28T03:30:52.915Z,4.23
2022-08-28T03:33:20.215Z,4.00
2022-08-28T03:35:47.196Z,4.47
2022-08-28T03:38:14.056Z,3.80
2022-08-28T03:40:46.301Z,4.00
2022-08-28T03:43:20.410Z,3.87
2022-08-28T03:46:00.540Z,4.53
2022-08-28T03:48:30.224Z,4.20
2022-08-28T03:50:57.782Z,3.53
2022-08-28T03:53:27.031Z,3.83
2022-08-28T03:55:53.713Z,3.90
2022-08-28T03:58:20.428Z,4.00
2022-08-28T04:00:47.086Z,3.70
2022-08-28T04:03:14.073Z,4.30
2022-08-28T04:05:42.535Z,3.77
2022-08-28T04:08:10.121Z,3.83
2022-08-28T04:10:37.854Z,3.90
2022-08-28T04:13:04.535Z,3.93
2022-08-28T04:15:31.247Z,3.60
2022-08-28T04:17:57.934Z,3.13
2022-08-28T04:20:24.730Z,3.20
2022-08-28T04:22:55.203Z,3.47
2022-08-28T04:25:22.428Z,3.60
2022-08-28T04:27:50.352Z,3.00
2022-08-28T04:30:17.294Z,3.50
2022-08-28T04:32:44.196Z,3.20
2022-08-28T04:35:13.079Z,3.57
2022-08-28T04:37:40.617Z,3.90
2022-08-28T04:40:10.767Z,2.80
2022-08-28T04:42:39.804Z,3.40
2022-08-28T04:45:07.631Z,3.33
2022-08-28T04:47:38.731Z,3.03
2022-08-28T04:50:07.005Z,2.60
2022-08-28T04:52:33.773Z,2.67
2022-08-28T04:55:00.614Z,3.07
2022-08-28T04:57:27.246Z,3.37
2022-08-28T04:59:54.045Z,3.10
2022-08-28T05:02:20.803Z,2.33
2022-08-28T05:04:48.524Z,2.60
2022-08-28T05:07:15.192Z,2.93
2022-08-28T05:09:41.840Z,2.60
2022-08-28T05:12:08.575Z,4.00
2022-08-28T05:14:36.528Z,2.57
2022-08-28T05:17:03.217Z,3.80
2022-08-28T05:19:29.843Z,2.77
2022-08-28T05:21:56.648Z,2.77
2022-08-28T05:24:23.336Z,2.80
2022-08-28T05:26:50.204Z,2.57
2022-08-28T05:29:17.572Z,2.80
2022-08-28T05:31:44.638Z,2.73
2022-08-28T05:34:13.238Z,3.07
2022-08-28T05:36:40.750Z,3.50
2022-08-28T05:39:10.691Z,2.57
2022-08-28T05:41:41.365Z,2.70
2022-08-28T05:44:10.793Z,3.33
2022-08-28T05:46:39.540Z,3.20
2022-08-28T05:49:10.101Z,3.73
2022-08-28T05:51:40.098Z,3.10
2022-08-28T05:54:07.158Z,2.87
2022-08-28T05:56:37.288Z,2.70
2022-08-28T05:59:05.673Z,3.17
2022-08-28T06:01:35.464Z,2.30
2022-08-28T06:04:10.215Z,2.90
2022-08-28T06:06:39.432Z,2.53
2022-08-28T06:09:12.549Z,2.93
2022-08-28T06:11:42.843Z,3.30
2022-08-28T06:14:15.133Z,2.90
2022-08-28T06:16:44.613Z,2.73
2022-08-28T06:19:12.437Z,3.73
2022-08-28T06:21:42.810Z,2.53
2022-08-28T06:24:12.014Z,3.30
2022-08-28T06:26:38.709Z,3.00
2022-08-28T06:29:08.355Z,2.90
2022-08-28T06:31:35.393Z,3.10
2022-08-28T06:34:02.472Z,2.77
2022-08-28T06:36:31.689Z,2.50
2022-08-28T06:39:00.068Z,2.33
2022-08-28T06:41:27.946Z,3.20
2022-08-28T06:43:55.457Z,2.70
2022-08-28T06:46:22.973Z,2.30
2022-08-28T06:48:49.817Z,2.50
2022-08-28T06:51:17.281Z,2.30
2022-08-28T06:53:45.788Z,2.57
2022-08-28T06:56:25.751Z,2.33
2022-08-28T06:58:54.551Z,2.90
2022-08-28T07:01:26.806Z,3.80
2022-08-28T07:03:55.592Z,2.40
2022-08-28T07:06:23.837Z,2.70
2022-08-28T07:08:51.009Z,3.03
2022-08-28T07:11:26.658Z,2.40
2022-08-28T07:13:54.639Z,2.70
2022-08-28T07:16:24.926Z,3.27
2022-08-28T07:18:51.676Z,3.17
2022-08-28T07:21:18.534Z,3.27
2022-08-28T07:23:46.162Z,2.70
2022-08-28T07:26:23.610Z,3.33
2022-08-28T07:28:52.591Z,2.27
2022-08-28T07:31:37.663Z,3.30
2022-08-28T07:34:04.408Z,2.87
2022-08-28T07:36:31.125Z,2.47
2022-08-28T07:38:59.636Z,2.20
2022-08-28T07:41:30.136Z,2.60
2022-08-28T07:44:16.310Z,3.47
2022-08-28T07:46:44.407Z,3.07
2022-08-28T07:49:11.913Z,2.80
2022-08-28T07:51:38.650Z,2.40
2022-08-28T07:54:05.649Z,2.80
2022-08-28T07:56:33.060Z,3.20
2022-08-28T07:59:01.052Z,2.63
2022-08-28T08:01:30.876Z,2.63
2022-08-28T08:04:01.451Z,2.80
2022-08-28T08:06:34.344Z,2.50
2022-08-28T08:09:02.113Z,2.60
2022-08-28T08:11:32.260Z,2.80
2022-08-28T08:14:04.689Z,2.70
2022-08-28T08:16:36.001Z,2.60
2022-08-28T08:19:03.951Z,3.17
2022-08-28T08:21:32.604Z,2.60
2022-08-28T08:23:59.486Z,3.10
2022-08-28T08:26:28.548Z,2.40
2022-08-28T08:28:56.603Z,2.40
2022-08-28T08:31:27.149Z,2.80
2022-08-28T08:33:57.580Z,2.67
2022-08-28T08:36:26.579Z,2.37
2022-08-28T08:38:59.356Z,2.53
2022-08-28T08:41:49.887Z,2.97
2022-08-28T08:44:56.316Z,3.17
2022-08-28T08:47:55.866Z,2.80
2022-08-28T08:50:30.925Z,2.73
2022-08-28T08:53:39.362Z,2.73
2022-08-28T08:56:06.307Z,2.60
2022-08-28T08:58:36.104Z,2.73
2022-08-28T09:01:34.579Z,2.90
2022-08-28T09:04:13.380Z,2.60
2022-08-28T09:07:05.707Z,3.57
2022-08-28T09:09:38.099Z,2.70
2022-08-28T09:12:13.130Z,3.10
2022-08-28T09:15:09.646Z,2.97
2022-08-28T09:17:42.436Z,2.90
2022-08-28T09:20:12.300Z,3.77
2022-08-28T09:22:44.680Z,3.03
2022-08-28T09:25:33.004Z,2.90
2022-08-28T09:28:08.213Z,2.80
2022-08-28T09:30:35.866Z,3.97
2022-08-28T09:33:02.636Z,2.47
2022-08-28T09:35:31.803Z,2.93
2022-08-28T09:38:18.751Z,2.57
2022-08-28T09:41:06.196Z,2.47
2022-08-28T09:43:35.291Z,2.57
2022-08-28T09:46:16.546Z,2.60
2022-08-28T09:48:44.942Z,2.60
2022-08-28T09:51:22.529Z,2.40
2022-08-28T09:53:52.216Z,2.13
2022-08-28T09:56:30.664Z,3.00
2022-08-28T09:59:02.141Z,2.20
2022-08-28T10:01:45.346Z,2.40
2022-08-28T10:04:31.394Z,2.57
2022-08-28T10:07:10.762Z,2.40
2022-08-28T10:09:48.198Z,2.53
2022-08-28T10:12:36.483Z,2.40
2022-08-28T10:15:50.317Z,2.17
2022-08-28T10:18:31.894Z,2.63
2022-08-28T10:21:28.762Z,2.40
2022-08-28T10:24:27.540Z,3.20
2022-08-28T10:26:58.050Z,2.70
2022-08-28T10:29:33.459Z,2.50
2022-08-28T10:32:03.121Z,2.50
2022-08-28T10:34:46.862Z,2.60
2022-08-28T10:37:44.910Z,2.50
2022-08-28T10:40:37.380Z,2.43
2022-08-28T10:43:38.763Z,1.77
2022-08-28T10:46:12.964Z,2.50
2022-08-28T10:48:52.620Z,2.00
2022-08-28T10:51:35.268Z,2.23
2022-08-28T10:54:28.201Z,2.10
2022-08-28T10:57:08.944Z,2.47
2022-08-28T10:59:41.717Z,2.60
2022-08-28T11:02:13.336Z,2.90
2022-08-28T11:04:40.437Z,2.10
2022-08-28T11:07:11.205Z,2.23
2022-08-28T11:09:42.565Z,2.03
2022-08-28T11:12:29.884Z,2.30
2022-08-28T11:14:56.974Z,2.20
2022-08-28T11:17:33.105Z,3.03
2022-08-28T11:20:00.228Z,2.60
2022-08-28T11:22:35.389Z,2.27
2022-08-28T11:25:27.665Z,2.17
2022-08-28T11:28:18.087Z,2.40
2022-08-28T11:30:47.807Z,2.50
2022-08-28T11:33:40.914Z,3.27
2022-08-28T11:36:22.892Z,1.97
2022-08-28T11:38:52.473Z,2.83
2022-08-28T11:41:29.336Z,2.87
2022-08-28T11:44:08.958Z,2.17
2022-08-28T11:46:38.842Z,2.27
2022-08-28T11:49:34.374Z,2.50
2022-08-28T11:52:10.204Z,2.60
2022-08-28T11:54:53.721Z,2.30
2022-08-28T11:57:45.342Z,2.57
2022-08-28T12:00:40.078Z,2.87
2022-08-28T12:03:06.756Z,2.60
2022-08-28T12:05:33.438Z,2.23
2022-08-28T12:08:02.504Z,2.47
2022-08-28T12:10:30.551Z,3.00
2022-08-28T12:13:01.038Z,2.87
2022-08-28T12:15:27.681Z,2.53
2022-08-28T12:18:00.086Z,2.27
2022-08-28T12:20:50.932Z,2.40
2022-08-28T12:23:23.500Z,2.30
2022-08-28T12:26:02.613Z,2.07
2022-08-28T12:28:33.429Z,2.60
2022-08-28T12:31:51.829Z,2.43
2022-08-28T12:34:52.801Z,2.70
2022-08-28T12:37:53.373Z,2.50
2022-08-28T12:40:22.019Z,2.67
2022-08-28T12:42:55.234Z,2.10
2022-08-28T12:45:37.704Z,2.10
2022-08-28T12:48:23.780Z,2.87
2022-08-28T12:51:08.161Z,2.43
2022-08-28T12:53:59.512Z,2.33
2022-08-28T12:56:32.485Z,2.40
2022-08-28T12:59:27.513Z,2.30
2022-08-28T13:02:01.265Z,2.47
2022-08-28T13:04:33.661Z,2.30
2022-08-28T13:07:11.944Z,2.47
2022-08-28T13:09:44.587Z,2.37
2022-08-28T13:12:20.462Z,2.63
2022-08-28T13:14:47.181Z,2.00
2022-08-28T13:17:35.204Z,3.40
2022-08-28T13:20:07.338Z,2.20
2022-08-28T13:22:40.338Z,1.87
2022-08-28T13:25:19.792Z,2.57
2022-08-28T13:27:59.428Z,2.67
2022-08-28T13:30:33.560Z,2.20
2022-08-28T13:33:19.338Z,2.60
2022-08-28T13:35:46.678Z,2.30
2022-08-28T13:38:16.490Z,2.63
2022-08-28T13:40:57.374Z,2.60
2022-08-28T13:43:27.469Z,2.70
2022-08-28T13:45:54.433Z,2.67
2022-08-28T13:48:24.533Z,2.30
2022-08-28T13:51:04.885Z,2.80
2022-08-28T13:53:34.463Z,2.20
2022-08-28T13:56:03.246Z,2.17
2022-08-28T13:58:29.923Z,2.50
2022-08-28T14:00:56.792Z,2.80
2022-08-28T14:03:35.900Z,2.40
2022-08-28T14:06:07.885Z,2.40
2022-08-28T14:08:34.873Z,2.00
2022-08-28T14:11:01.638Z,2.63
2022-08-28T14:13:28.470Z,2.67
2022-08-28T14:15:56.534Z,2.37
2022-08-28T14:18:24.862Z,2.60
2022-08-28T14:20:52.036Z,2.23
2022-08-28T14:23:18.672Z,3.07
2022-08-28T14:25:46.587Z,2.60
2022-08-28T14:28:16.962Z,2.43
2022-08-28T14:30:47.010Z,2.60
2022-08-28T14:33:16.743Z,2.50
2022-08-28T14:35:43.430Z,1.97
2022-08-28T14:38:11.127Z,2.43
2022-08-28T14:40:39.393Z,2.20
2022-08-28T14:43:08.330Z,2.57
2022-08-28T14:45:49.519Z,2.60
2022-08-28T14:48:18.315Z,2.00
2022-08-28T14:50:48.214Z,2.63
2022-08-28T14:53:15.995Z,2.77
2022-08-28T14:55:45.269Z,2.27
2022-08-28T14:58:12.619Z,2.20
2022-08-28T15:00:45.044Z,2.40
2022-08-28T15:03:13.764Z,2.30
2022-08-28T15:05:41.136Z,2.20
2022-08-28T15:08:14.168Z,1.90
2022-08-28T15:10:42.497Z,2.53
2022-08-28T15:13:10.704Z,2.53
2022-08-28T15:15:42.522Z,2.13
2022-08-28T15:18:10.820Z,1.90
2022-08-28T15:20:43.876Z,2.40
2022-08-28T15:23:12.158Z,2.70
2022-08-28T15:25:39.072Z,2.20
2022-08-28T15:28:06.393Z,2.60
2022-08-28T15:30:33.127Z,2.33
2022-08-28T15:33:00.069Z,2.90
2022-08-28T15:35:26.809Z,2.20
2022-08-28T15:37:53.659Z,2.73
2022-08-28T15:40:39.233Z,2.33
2022-08-28T15:43:06.121Z,2.40
2022-08-28T15:45:37.455Z,2.93
2022-08-28T15:48:04.594Z,2.90
2022-08-28T15:50:31.577Z,2.10
2022-08-28T15:52:58.933Z,2.33
2022-08-28T15:55:26.277Z,1.90
2022-08-28T15:57:53.424Z,2.13
2022-08-28T16:00:20.806Z,2.33
2022-08-28T16:02:47.497Z,2.70
2022-08-28T16:05:15.802Z,2.47
2022-08-28T16:07:42.585Z,2.73
2022-08-28T16:10:13.250Z,2.60
2022-08-28T16:12:40.922Z,2.33
2022-08-28T16:15:08.660Z,2.23
2022-08-28T16:17:35.521Z,2.43
2022-08-28T16:20:05.494Z,3.10
2022-08-28T16:22:37.850Z,2.87
2022-08-28T16:25:05.769Z,2.37
2022-08-28T16:27:32.578Z,2.97
2022-08-28T16:29:59.298Z,3.27
2022-08-28T16:32:26.413Z,3.20
2022-08-28T16:34:53.967Z,2.60
2022-08-28T16:37:21.348Z,3.00
2022-08-28T16:39:53.973Z,3.40
2022-08-28T16:42:20.806Z,3.10
2022-08-28T16:44:47.895Z,2.80
2022-08-28T16:47:14.761Z,2.80
2022-08-28T16:49:41.457Z,3.37
2022-08-28T16:52:08.218Z,3.13
2022-08-28T16:54:34.872Z,3.47
2022-08-28T16:57:01.678Z,3.03
2022-08-28T16:59:28.628Z,3.60
2022-08-28T17:01:55.866Z,2.90
2022-08-28T17:04:22.740Z,3.10
2022-08-28T17:06:49.979Z,3.73
2022-08-28T17:09:16.640Z,3.47
2022-08-28T17:11:51.655Z,3.10
2022-08-28T17:14:19.896Z,2.70
2022-08-28T17:16:47.288Z,2.40
2022-08-28T17:19:15.613Z,2.77
2022-08-28T17:22:01.680Z,3.00
2022-08-28T17:24:28.806Z,3.03
2022-08-28T17:26:55.487Z,3.00
2022-08-28T17:29:22.268Z,3.00
2022-08-28T17:31:49.081Z,2.57
2022-08-28T17:34:15.764Z,2.90
2022-08-28T17:36:48.118Z,2.90
2022-08-28T17:39:16.237Z,3.10
2022-08-28T17:41:43.432Z,2.73
2022-08-28T17:44:10.167Z,2.87
2022-08-28T17:46:38.259Z,2.27
2022-08-28T17:49:07.022Z,3.10
2022-08-28T17:51:42.823Z,2.87
2022-08-28T17:54:18.540Z,2.47
2022-08-28T17:56:45.380Z,2.40
2022-08-28T17:59:12.545Z,2.77
2022-08-28T18:01:40.904Z,2.83
2022-08-28T18:04:08.798Z,3.40
2022-08-28T18:06:35.705Z,3.13
2022-08-28T18:09:03.825Z,3.10
2022-08-28T18:11:30.535Z,3.23
2022-08-28T18:13:57.226Z,3.90
2022-08-28T18:16:28.914Z,3.27
2022-08-28T18:18:57.936Z,3.67
2022-08-28T18:21:24.781Z,3.37
2022-08-28T18:23:51.590Z,3.97
2022-08-28T18:26:18.367Z,3.53
2022-08-28T18:28:45.034Z,3.03
2022-08-28T18:31:11.790Z,3.60
2022-08-28T18:33:38.561Z,3.27
2022-08-28T18:36:10.483Z,2.90
2022-08-28T18:38:37.530Z,3.57
2022-08-28T18:41:06.653Z,2.90
2022-08-28T18:43:33.689Z,2.70
2022-08-28T18:46:01.829Z,2.80
2022-08-28T18:48:28.960Z,3.00
2022-08-28T18:50:55.641Z,3.00
2022-08-28T18:53:23.283Z,3.00
2022-08-28T18:55:52.762Z,2.27
2022-08-28T18:58:21.987Z,2.50
2022-08-28T19:00:49.422Z,3.57
2022-08-28T19:03:16.156Z,2.60
2022-08-28T19:05:42.846Z,2.63
2022-08-28T19:08:09.526Z,2.23
2022-08-28T19:10:37.798Z,2.30
2022-08-28T19:13:05.631Z,2.40
2022-08-28T19:15:33.788Z,2.60
2022-08-28T19:18:01.284Z,2.40
2022-08-28T19:20:28.255Z,2.40
2022-08-28T19:22:55.830Z,2.50
2022-08-28T19:25:28.473Z,2.60
2022-08-28T19:27:59.393Z,2.40
2022-08-28T19:30:28.922Z,2.77
2022-08-28T19:32:55.975Z,2.73
2022-08-28T19:35:24.585Z,2.67
2022-08-28T19:37:52.320Z,2.80
2022-08-28T19:40:20.521Z,2.50
2022-08-28T19:42:47.727Z,2.00
2022-08-28T19:45:15.439Z,2.20
2022-08-28T19:47:42.665Z,2.57
2022-08-28T19:50:11.031Z,2.27
2022-08-28T19:52:38.008Z,2.10
2022-08-28T19:55:06.525Z,2.47
2022-08-28T19:57:34.241Z,2.13
2022-08-28T20:00:01.871Z,2.13
2022-08-28T20:02:29.321Z,2.37
2022-08-28T20:04:56.090Z,2.40
2022-08-28T20:07:24.892Z,2.20
2022-08-28T20:09:52.254Z,1.97
2022-08-28T20:12:19.172Z,2.37
2022-08-28T20:14:46.125Z,2.10
2022-08-28T20:17:13.846Z,1.60
2022-08-28T20:19:40.728Z,2.77
2022-08-28T20:22:07.404Z,1.80
2022-08-28T20:24:34.241Z,2.20
2022-08-28T20:27:00.965Z,2.17
2022-08-28T20:29:27.738Z,2.13
2022-08-28T20:31:54.516Z,2.27
2022-08-28T20:34:21.872Z,2.10
2022-08-28T20:36:48.942Z,2.03
2022-08-28T20:39:16.147Z,1.93
2022-08-28T20:41:44.729Z,2.90
2022-08-28T20:44:13.377Z,2.30
2022-08-28T20:46:41.962Z,1.53
2022-08-28T20:49:10.588Z,1.63
2022-08-28T20:51:52.677Z,2.03
2022-08-28T20:54:38.939Z,1.47
2022-08-28T20:57:10.899Z,1.93
2022-08-28T20:59:40.607Z,1.70
2022-08-28T21:02:20.486Z,1.47
2022-08-28T21:04:48.179Z,1.40
2022-08-28T21:07:17.769Z,1.63
2022-08-28T21:10:05.891Z,1.37
2022-08-28T21:12:31.527Z,1.80
2022-08-28T21:14:59.895Z,1.60
2022-08-28T21:17:29.766Z,1.60
2022-08-28T21:20:02.906Z,2.23
2022-08-28T21:22:31.912Z,1.80
2022-08-28T21:24:59.827Z,1.90
2022-08-28T21:27:26.866Z,1.50
2022-08-28T21:29:58.519Z,1.67
2022-08-28T21:32:25.990Z,2.17
2022-08-28T21:34:53.053Z,2.13
2022-08-28T21:37:19.836Z,1.73
2022-08-28T21:39:46.626Z,1.50
2022-08-28T21:42:13.430Z,1.97
2022-08-28T21:44:40.831Z,2.23
2022-08-28T21:47:15.572Z,2.60
2022-08-28T21:49:42.262Z,1.87
2022-08-28T21:52:08.997Z,2.47
2022-08-28T21:54:36.817Z,2.93
2022-08-28T21:57:03.570Z,1.70
2022-08-28T21:59:34.149Z,1.70
2022-08-28T22:02:04.912Z,2.20
2022-08-28T22:04:32.038Z,2.30
2022-08-28T22:06:58.978Z,1.70
2022-08-28T22:09:25.659Z,1.60
2022-08-28T22:11:52.416Z,2.00
2022-08-28T22:14:19.151Z,1.97
2022-08-28T22:16:46.360Z,2.03
2022-08-28T22:19:13.107Z,2.10
2022-08-28T22:21:58.315Z,1.77
2022-08-28T22:24:24.986Z,1.83
2022-08-28T22:26:57.529Z,2.67
2022-08-28T22:29:25.096Z,1.80
2022-08-28T22:31:52.677Z,1.97
2022-08-28T22:34:19.760Z,2.47
2022-08-28T22:36:46.959Z,1.67
2022-08-28T22:39:13.682Z,2.30
2022-08-28T22:41:40.668Z,2.20
2022-08-28T22:44:07.607Z,2.30
2022-08-28T22:46:34.571Z,2.43
2022-08-28T22:49:01.366Z,2.03
2022-08-28T22:51:28.056Z,1.70
2022-08-28T22:53:56.053Z,2.00
2022-08-28T22:56:22.749Z,2.47
2022-08-28T22:58:49.390Z,2.00
2022-08-28T23:01:22.516Z,2.30
2022-08-28T23:03:49.987Z,2.47
2022-08-28T23:06:17.596Z,2.00
2022-08-28T23:08:44.351Z,2.00
2022-08-28T23:11:11.125Z,2.10
2022-08-28T23:13:38.765Z,1.90
2022-08-28T23:16:06.816Z,2.00
2022-08-28T23:18:51.913Z,1.70
2022-08-28T23:21:23.078Z,2.33
2022-08-28T23:23:51.227Z,2.23
2022-08-28T23:26:18.258Z,2.27
2022-08-28T23:28:45.004Z,1.50
2022-08-28T23:31:12.964Z,2.10
2022-08-28T23:33:39.715Z,2.10
2022-08-28T23:36:06.632Z,1.80
2022-08-28T23:38:36.387Z,1.87
2022-08-28T23:41:03.923Z,1.60
2022-08-28T23:43:31.459Z,2.17
2022-08-28T23:45:58.245Z,1.77
2022-08-28T23:48:25.248Z,2.10
2022-08-28T23:50:52.674Z,2.03
2022-08-28T23:53:19.405Z,1.60
2022-08-28T23:55:46.977Z,2.43
2022-08-28T23:58:15.641Z,1.97
